sensor_id;sensor_type;location;lat;lon;timestamp;P1;durP1;ratioP1;P2;durP2;ratioP2
55009;SDS011;40903;51.638;7.528;2024-01-16T00:01:10;14.10;;;5.80;;
55009;SDS011;40903;51.638;7.528;2024-01-16T00:03:37;14.37;;;6.07;;
55009;SDS011;40903;51.638;7.528;2024-01-16T00:06:03;11.07;;;6.47;;
55009;SDS011;40903;51.638;7.528;2024-01-16T00:08:29;10.70;;;7.13;;
55009;SDS011;40903;51.638;7.528;2024-01-16T00:10:54;9.23;;;5.47;;
55009;SDS011;40903;51.638;7.528;2024-01-16T00:13:20;14.97;;;6.20;;
55009;SDS011;40903;51.638;7.528;2024-01-16T00:15:45;11.97;;;6.43;;
55009;SDS011;40903;51.638;7.528;2024-01-16T00:18:11;9.53;;;5.40;;
55009;SDS011;40903;51.638;7.528;2024-01-16T00:20:36;11.97;;;6.37;;
55009;SDS011;40903;51.638;7.528;2024-01-16T00:23:02;8.00;;;5.37;;
55009;SDS011;40903;51.638;7.528;2024-01-16T00:25:27;11.77;;;6.70;;
55009;SDS011;40903;51.638;7.528;2024-01-16T00:27:54;11.17;;;5.57;;
55009;SDS011;40903;51.638;7.528;2024-01-16T00:30:20;10.00;;;6.37;;
55009;SDS011;40903;51.638;7.528;2024-01-16T00:32:45;8.67;;;5.57;;
55009;SDS011;40903;51.638;7.528;2024-01-16T00:35:11;13.60;;;6.10;;
55009;SDS011;40903;51.638;7.528;2024-01-16T00:37:38;13.60;;;7.07;;
55009;SDS011;40903;51.638;7.528;2024-01-16T00:40:04;10.57;;;6.27;;
55009;SDS011;40903;51.638;7.528;2024-01-16T00:42:31;16.00;;;6.57;;
55009;SDS011;40903;51.638;7.528;2024-01-16T00:44:57;14.37;;;7.03;;
55009;SDS011;40903;51.638;7.528;2024-01-16T00:47:23;10.63;;;4.50;;
55009;SDS011;40903;51.638;7.528;2024-01-16T00:49:49;12.37;;;5.90;;
55009;SDS011;40903;51.638;7.528;2024-01-16T00:52:15;11.30;;;5.43;;
55009;SDS011;40903;51.638;7.528;2024-01-16T00:54:40;9.53;;;5.33;;
55009;SDS011;40903;51.638;7.528;2024-01-16T00:57:07;12.00;;;5.67;;
55009;SDS011;40903;51.638;7.528;2024-01-16T00:59:32;11.80;;;5.73;;
55009;SDS011;40903;51.638;7.528;2024-01-16T01:01:58;16.60;;;6.43;;
55009;SDS011;40903;51.638;7.528;2024-01-16T01:04:23;12.67;;;5.87;;
55009;SDS011;40903;51.638;7.528;2024-01-16T01:06:49;12.00;;;5.73;;
55009;SDS011;40903;51.638;7.528;2024-01-16T01:09:15;8.90;;;5.20;;
55009;SDS011;40903;51.638;7.528;2024-01-16T01:11:41;13.13;;;4.73;;
55009;SDS011;40903;51.638;7.528;2024-01-16T01:14:07;12.00;;;5.17;;
55009;SDS011;40903;51.638;7.528;2024-01-16T01:16:33;13.30;;;5.33;;
55009;SDS011;40903;51.638;7.528;2024-01-16T01:18:58;8.33;;;5.13;;
55009;SDS011;40903;51.638;7.528;2024-01-16T01:21:24;12.17;;;5.00;;
55009;SDS011;40903;51.638;7.528;2024-01-16T01:23:50;12.57;;;5.00;;
55009;SDS011;40903;51.638;7.528;2024-01-16T01:26:16;11.37;;;5.37;;
55009;SDS011;40903;51.638;7.528;2024-01-16T01:28:45;8.90;;;4.43;;
55009;SDS011;40903;51.638;7.528;2024-01-16T01:31:11;11.33;;;4.83;;
55009;SDS011;40903;51.638;7.528;2024-01-16T01:33:38;7.27;;;4.67;;
55009;SDS011;40903;51.638;7.528;2024-01-16T01:36:04;11.93;;;5.93;;
55009;SDS011;40903;51.638;7.528;2024-01-16T01:38:30;8.27;;;4.90;;
55009;SDS011;40903;51.638;7.528;2024-01-16T01:40:56;8.50;;;4.13;;
55009;SDS011;40903;51.638;7.528;2024-01-16T01:43:22;7.80;;;4.77;;
55009;SDS011;40903;51.638;7.528;2024-01-16T01:46:12;8.77;;;4.90;;
55009;SDS011;40903;51.638;7.528;2024-01-16T01:48:37;8.80;;;5.10;;
55009;SDS011;40903;51.638;7.528;2024-01-16T01:51:04;9.27;;;5.70;;
55009;SDS011;40903;51.638;7.528;2024-01-16T01:53:30;8.10;;;4.90;;
55009;SDS011;40903;51.638;7.528;2024-01-16T01:55:57;9.80;;;4.73;;
55009;SDS011;40903;51.638;7.528;2024-01-16T01:58:24;12.37;;;5.97;;
55009;SDS011;40903;51.638;7.528;2024-01-16T02:00:50;11.13;;;5.20;;
55009;SDS011;40903;51.638;7.528;2024-01-16T02:03:15;9.57;;;5.77;;
55009;SDS011;40903;51.638;7.528;2024-01-16T02:05:42;11.40;;;5.20;;
55009;SDS011;40903;51.638;7.528;2024-01-16T02:08:07;14.20;;;5.90;;
55009;SDS011;40903;51.638;7.528;2024-01-16T02:10:34;9.10;;;4.83;;
55009;SDS011;40903;51.638;7.528;2024-01-16T02:13:02;9.40;;;5.03;;
55009;SDS011;40903;51.638;7.528;2024-01-16T02:15:28;17.03;;;5.97;;
55009;SDS011;40903;51.638;7.528;2024-01-16T02:17:54;14.53;;;5.83;;
55009;SDS011;40903;51.638;7.528;2024-01-16T02:20:19;22.40;;;7.17;;
55009;SDS011;40903;51.638;7.528;2024-01-16T02:22:45;10.20;;;6.27;;
55009;SDS011;40903;51.638;7.528;2024-01-16T02:25:13;12.17;;;6.03;;
55009;SDS011;40903;51.638;7.528;2024-01-16T02:27:39;14.00;;;6.00;;
55009;SDS011;40903;51.638;7.528;2024-01-16T02:30:05;11.20;;;6.00;;
55009;SDS011;40903;51.638;7.528;2024-01-16T02:32:31;13.23;;;6.77;;
55009;SDS011;40903;51.638;7.528;2024-01-16T02:34:57;12.73;;;5.50;;
55009;SDS011;40903;51.638;7.528;2024-01-16T02:37:23;15.37;;;6.50;;
55009;SDS011;40903;51.638;7.528;2024-01-16T02:39:49;11.07;;;5.63;;
55009;SDS011;40903;51.638;7.528;2024-01-16T02:42:14;11.07;;;5.73;;
55009;SDS011;40903;51.638;7.528;2024-01-16T02:44:40;10.70;;;5.57;;
55009;SDS011;40903;51.638;7.528;2024-01-16T02:47:06;11.00;;;5.27;;
55009;SDS011;40903;51.638;7.528;2024-01-16T02:49:32;10.20;;;4.70;;
55009;SDS011;40903;51.638;7.528;2024-01-16T02:51:58;11.03;;;5.30;;
55009;SDS011;40903;51.638;7.528;2024-01-16T02:54:24;11.37;;;4.83;;
55009;SDS011;40903;51.638;7.528;2024-01-16T02:56:49;9.00;;;5.00;;
55009;SDS011;40903;51.638;7.528;2024-01-16T02:59:15;8.40;;;5.17;;
55009;SDS011;40903;51.638;7.528;2024-01-16T03:01:41;7.03;;;4.50;;
55009;SDS011;40903;51.638;7.528;2024-01-16T03:04:07;9.93;;;5.10;;
55009;SDS011;40903;51.638;7.528;2024-01-16T03:06:32;8.90;;;4.67;;
55009;SDS011;40903;51.638;7.528;2024-01-16T03:08:58;12.37;;;4.47;;
55009;SDS011;40903;51.638;7.528;2024-01-16T03:11:23;8.10;;;4.03;;
55009;SDS011;40903;51.638;7.528;2024-01-16T03:13:49;9.90;;;4.53;;
55009;SDS011;40903;51.638;7.528;2024-01-16T03:16:17;9.33;;;5.50;;
55009;SDS011;40903;51.638;7.528;2024-01-16T03:18:43;10.33;;;4.80;;
55009;SDS011;40903;51.638;7.528;2024-01-16T03:21:08;10.90;;;5.10;;
55009;SDS011;40903;51.638;7.528;2024-01-16T03:23:36;9.60;;;4.13;;
55009;SDS011;40903;51.638;7.528;2024-01-16T03:26:01;13.47;;;5.90;;
55009;SDS011;40903;51.638;7.528;2024-01-16T03:28:28;7.37;;;4.80;;
55009;SDS011;40903;51.638;7.528;2024-01-16T03:30:54;11.00;;;5.27;;
55009;SDS011;40903;51.638;7.528;2024-01-16T03:33:19;11.93;;;5.40;;
55009;SDS011;40903;51.638;7.528;2024-01-16T03:35:45;10.80;;;4.63;;
55009;SDS011;40903;51.638;7.528;2024-01-16T03:38:12;11.30;;;5.80;;
55009;SDS011;40903;51.638;7.528;2024-01-16T03:40:38;12.00;;;5.83;;
55009;SDS011;40903;51.638;7.528;2024-01-16T03:43:03;13.10;;;6.23;;
55009;SDS011;40903;51.638;7.528;2024-01-16T03:45:30;13.37;;;7.13;;
55009;SDS011;40903;51.638;7.528;2024-01-16T03:47:56;20.53;;;6.57;;
55009;SDS011;40903;51.638;7.528;2024-01-16T03:50:22;18.07;;;7.37;;
55009;SDS011;40903;51.638;7.528;2024-01-16T03:52:47;11.13;;;6.83;;
55009;SDS011;40903;51.638;7.528;2024-01-16T03:55:13;10.13;;;6.63;;
55009;SDS011;40903;51.638;7.528;2024-01-16T03:57:39;17.13;;;6.67;;
55009;SDS011;40903;51.638;7.528;2024-01-16T04:00:04;10.07;;;6.27;;
55009;SDS011;40903;51.638;7.528;2024-01-16T04:02:31;20.77;;;6.03;;
55009;SDS011;40903;51.638;7.528;2024-01-16T04:04:57;17.60;;;7.67;;
55009;SDS011;40903;51.638;7.528;2024-01-16T04:07:23;19.43;;;7.67;;
55009;SDS011;40903;51.638;7.528;2024-01-16T04:09:51;16.67;;;7.43;;
55009;SDS011;40903;51.638;7.528;2024-01-16T04:12:17;12.53;;;6.93;;
55009;SDS011;40903;51.638;7.528;2024-01-16T04:14:42;16.67;;;6.97;;
55009;SDS011;40903;51.638;7.528;2024-01-16T04:17:08;12.53;;;6.67;;
55009;SDS011;40903;51.638;7.528;2024-01-16T04:19:33;18.50;;;7.50;;
55009;SDS011;40903;51.638;7.528;2024-01-16T04:21:59;14.40;;;7.17;;
55009;SDS011;40903;51.638;7.528;2024-01-16T04:24:26;16.33;;;7.83;;
55009;SDS011;40903;51.638;7.528;2024-01-16T04:26:54;14.07;;;7.47;;
55009;SDS011;40903;51.638;7.528;2024-01-16T04:29:20;15.80;;;7.53;;
55009;SDS011;40903;51.638;7.528;2024-01-16T04:31:45;16.10;;;7.40;;
55009;SDS011;40903;51.638;7.528;2024-01-16T04:34:11;15.07;;;7.10;;
55009;SDS011;40903;51.638;7.528;2024-01-16T04:36:36;14.27;;;7.13;;
55009;SDS011;40903;51.638;7.528;2024-01-16T04:39:02;15.07;;;7.30;;
55009;SDS011;40903;51.638;7.528;2024-01-16T04:41:28;12.13;;;6.80;;
55009;SDS011;40903;51.638;7.528;2024-01-16T04:43:54;13.60;;;8.30;;
55009;SDS011;40903;51.638;7.528;2024-01-16T04:46:20;13.40;;;6.97;;
55009;SDS011;40903;51.638;7.528;2024-01-16T04:48:45;13.57;;;6.30;;
55009;SDS011;40903;51.638;7.528;2024-01-16T04:51:11;16.50;;;8.23;;
55009;SDS011;40903;51.638;7.528;2024-01-16T04:53:37;14.60;;;8.43;;
55009;SDS011;40903;51.638;7.528;2024-01-16T04:56:02;18.67;;;8.63;;
55009;SDS011;40903;51.638;7.528;2024-01-16T04:58:28;11.20;;;6.67;;
55009;SDS011;40903;51.638;7.528;2024-01-16T05:00:53;18.77;;;7.07;;
55009;SDS011;40903;51.638;7.528;2024-01-16T05:03:19;15.67;;;7.50;;
55009;SDS011;40903;51.638;7.528;2024-01-16T05:05:45;13.97;;;7.97;;
55009;SDS011;40903;51.638;7.528;2024-01-16T05:08:10;17.50;;;7.93;;
55009;SDS011;40903;51.638;7.528;2024-01-16T05:10:35;14.63;;;8.53;;
55009;SDS011;40903;51.638;7.528;2024-01-16T05:13:01;17.47;;;7.70;;
55009;SDS011;40903;51.638;7.528;2024-01-16T05:15:27;20.27;;;7.93;;
55009;SDS011;40903;51.638;7.528;2024-01-16T05:17:52;18.00;;;8.17;;
55009;SDS011;40903;51.638;7.528;2024-01-16T05:20:20;16.73;;;8.33;;
55009;SDS011;40903;51.638;7.528;2024-01-16T05:22:46;17.17;;;7.80;;
55009;SDS011;40903;51.638;7.528;2024-01-16T05:25:12;15.20;;;7.90;;
55009;SDS011;40903;51.638;7.528;2024-01-16T05:27:38;16.30;;;7.90;;
55009;SDS011;40903;51.638;7.528;2024-01-16T05:30:03;16.50;;;8.37;;
55009;SDS011;40903;51.638;7.528;2024-01-16T05:32:29;21.30;;;8.97;;
55009;SDS011;40903;51.638;7.528;2024-01-16T05:34:54;17.50;;;8.90;;
55009;SDS011;40903;51.638;7.528;2024-01-16T05:37:20;18.20;;;8.40;;
55009;SDS011;40903;51.638;7.528;2024-01-16T05:39:45;14.37;;;7.63;;
55009;SDS011;40903;51.638;7.528;2024-01-16T05:42:11;16.80;;;7.60;;
55009;SDS011;40903;51.638;7.528;2024-01-16T05:44:38;14.20;;;7.80;;
55009;SDS011;40903;51.638;7.528;2024-01-16T05:47:03;12.93;;;7.03;;
55009;SDS011;40903;51.638;7.528;2024-01-16T05:49:30;12.03;;;6.50;;
55009;SDS011;40903;51.638;7.528;2024-01-16T05:51:56;13.43;;;8.27;;
55009;SDS011;40903;51.638;7.528;2024-01-16T05:54:21;15.67;;;7.53;;
55009;SDS011;40903;51.638;7.528;2024-01-16T05:56:47;14.10;;;7.40;;
55009;SDS011;40903;51.638;7.528;2024-01-16T05:59:12;15.70;;;7.40;;
55009;SDS011;40903;51.638;7.528;2024-01-16T06:01:38;11.93;;;7.20;;
55009;SDS011;40903;51.638;7.528;2024-01-16T06:04:03;16.37;;;7.80;;
55009;SDS011;40903;51.638;7.528;2024-01-16T06:06:29;14.40;;;7.20;;
55009;SDS011;40903;51.638;7.528;2024-01-16T06:08:55;16.00;;;6.33;;
55009;SDS011;40903;51.638;7.528;2024-01-16T06:11:30;13.93;;;7.10;;
55009;SDS011;40903;51.638;7.528;2024-01-16T06:13:59;21.67;;;7.63;;
55009;SDS011;40903;51.638;7.528;2024-01-16T06:16:25;14.93;;;7.97;;
55009;SDS011;40903;51.638;7.528;2024-01-16T06:18:51;11.03;;;6.17;;
55009;SDS011;40903;51.638;7.528;2024-01-16T06:21:17;14.07;;;6.60;;
55009;SDS011;40903;51.638;7.528;2024-01-16T06:23:43;15.33;;;6.90;;
55009;SDS011;40903;51.638;7.528;2024-01-16T06:26:08;10.87;;;6.80;;
55009;SDS011;40903;51.638;7.528;2024-01-16T06:28:34;14.97;;;7.07;;
55009;SDS011;40903;51.638;7.528;2024-01-16T06:30:59;8.70;;;5.53;;
55009;SDS011;40903;51.638;7.528;2024-01-16T06:33:25;11.33;;;6.43;;
55009;SDS011;40903;51.638;7.528;2024-01-16T06:35:51;12.33;;;6.27;;
55009;SDS011;40903;51.638;7.528;2024-01-16T06:38:16;14.03;;;7.13;;
55009;SDS011;40903;51.638;7.528;2024-01-16T06:40:42;13.17;;;6.40;;
55009;SDS011;40903;51.638;7.528;2024-01-16T06:43:07;13.23;;;6.13;;
55009;SDS011;40903;51.638;7.528;2024-01-16T06:45:33;16.73;;;5.80;;
55009;SDS011;40903;51.638;7.528;2024-01-16T06:47:59;14.03;;;6.40;;
55009;SDS011;40903;51.638;7.528;2024-01-16T06:50:25;13.03;;;5.97;;
55009;SDS011;40903;51.638;7.528;2024-01-16T06:52:50;8.50;;;5.07;;
55009;SDS011;40903;51.638;7.528;2024-01-16T06:55:15;10.30;;;5.83;;
55009;SDS011;40903;51.638;7.528;2024-01-16T06:57:41;10.47;;;5.87;;
55009;SDS011;40903;51.638;7.528;2024-01-16T07:00:07;11.40;;;5.60;;
55009;SDS011;40903;51.638;7.528;2024-01-16T07:02:33;13.10;;;7.00;;
55009;SDS011;40903;51.638;7.528;2024-01-16T07:04:58;9.27;;;5.23;;
55009;SDS011;40903;51.638;7.528;2024-01-16T07:07:24;12.63;;;5.13;;
55009;SDS011;40903;51.638;7.528;2024-01-16T07:09:49;12.80;;;5.93;;
55009;SDS011;40903;51.638;7.528;2024-01-16T07:12:15;10.07;;;6.03;;
55009;SDS011;40903;51.638;7.528;2024-01-16T07:14:40;8.97;;;5.57;;
55009;SDS011;40903;51.638;7.528;2024-01-16T07:17:06;10.10;;;5.77;;
55009;SDS011;40903;51.638;7.528;2024-01-16T07:19:32;13.13;;;6.23;;
55009;SDS011;40903;51.638;7.528;2024-01-16T07:21:58;8.13;;;5.20;;
55009;SDS011;40903;51.638;7.528;2024-01-16T07:24:24;13.60;;;6.70;;
55009;SDS011;40903;51.638;7.528;2024-01-16T07:26:49;13.77;;;7.07;;
55009;SDS011;40903;51.638;7.528;2024-01-16T07:29:15;9.70;;;5.97;;
55009;SDS011;40903;51.638;7.528;2024-01-16T07:31:40;15.00;;;6.23;;
55009;SDS011;40903;51.638;7.528;2024-01-16T07:34:06;11.60;;;5.93;;
55009;SDS011;40903;51.638;7.528;2024-01-16T07:36:32;14.37;;;6.70;;
55009;SDS011;40903;51.638;7.528;2024-01-16T07:38:57;11.23;;;6.87;;
55009;SDS011;40903;51.638;7.528;2024-01-16T07:41:26;14.40;;;7.70;;
55009;SDS011;40903;51.638;7.528;2024-01-16T07:43:51;18.03;;;7.50;;
55009;SDS011;40903;51.638;7.528;2024-01-16T07:46:16;17.73;;;7.67;;
55009;SDS011;40903;51.638;7.528;2024-01-16T07:48:42;15.73;;;8.03;;
55009;SDS011;40903;51.638;7.528;2024-01-16T07:51:08;15.37;;;9.30;;
55009;SDS011;40903;51.638;7.528;2024-01-16T07:53:33;14.23;;;7.33;;
55009;SDS011;40903;51.638;7.528;2024-01-16T07:55:59;19.93;;;9.30;;
55009;SDS011;40903;51.638;7.528;2024-01-16T07:58:24;17.37;;;9.17;;
55009;SDS011;40903;51.638;7.528;2024-01-16T08:00:50;17.97;;;9.47;;
55009;SDS011;40903;51.638;7.528;2024-01-16T08:03:15;26.23;;;10.97;;
55009;SDS011;40903;51.638;7.528;2024-01-16T08:05:41;20.13;;;10.03;;
55009;SDS011;40903;51.638;7.528;2024-01-16T08:08:09;17.03;;;10.27;;
55009;SDS011;40903;51.638;7.528;2024-01-16T08:10:34;19.73;;;9.47;;
55009;SDS011;40903;51.638;7.528;2024-01-16T08:13:00;17.50;;;9.00;;
55009;SDS011;40903;51.638;7.528;2024-01-16T08:15:26;18.27;;;9.63;;
55009;SDS011;40903;51.638;7.528;2024-01-16T08:17:51;21.43;;;10.13;;
55009;SDS011;40903;51.638;7.528;2024-01-16T08:20:16;21.33;;;9.73;;
55009;SDS011;40903;51.638;7.528;2024-01-16T08:22:42;21.23;;;10.80;;
55009;SDS011;40903;51.638;7.528;2024-01-16T08:25:08;15.67;;;9.13;;
55009;SDS011;40903;51.638;7.528;2024-01-16T08:27:33;23.17;;;10.10;;
55009;SDS011;40903;51.638;7.528;2024-01-16T08:29:59;18.10;;;9.43;;
55009;SDS011;40903;51.638;7.528;2024-01-16T08:32:25;17.47;;;10.40;;
55009;SDS011;40903;51.638;7.528;2024-01-16T08:34:51;19.93;;;10.13;;
55009;SDS011;40903;51.638;7.528;2024-01-16T08:37:17;19.23;;;9.87;;
55009;SDS011;40903;51.638;7.528;2024-01-16T08:39:42;20.53;;;9.80;;
55009;SDS011;40903;51.638;7.528;2024-01-16T08:42:08;17.93;;;9.10;;
55009;SDS011;40903;51.638;7.528;2024-01-16T08:44:37;13.97;;;8.17;;
55009;SDS011;40903;51.638;7.528;2024-01-16T08:47:03;20.57;;;8.43;;
55009;SDS011;40903;51.638;7.528;2024-01-16T08:49:31;20.10;;;8.27;;
55009;SDS011;40903;51.638;7.528;2024-01-16T08:51:57;13.07;;;7.53;;
55009;SDS011;40903;51.638;7.528;2024-01-16T08:54:23;15.40;;;7.07;;
55009;SDS011;40903;51.638;7.528;2024-01-16T08:56:50;11.07;;;6.43;;
55009;SDS011;40903;51.638;7.528;2024-01-16T08:59:16;13.77;;;6.10;;
55009;SDS011;40903;51.638;7.528;2024-01-16T09:01:42;10.90;;;5.37;;
55009;SDS011;40903;51.638;7.528;2024-01-16T09:04:07;12.87;;;5.57;;
55009;SDS011;40903;51.638;7.528;2024-01-16T09:06:33;8.43;;;5.23;;
55009;SDS011;40903;51.638;7.528;2024-01-16T09:08:59;11.73;;;6.23;;
55009;SDS011;40903;51.638;7.528;2024-01-16T09:11:24;15.93;;;5.53;;
55009;SDS011;40903;51.638;7.528;2024-01-16T09:13:50;11.80;;;4.97;;
55009;SDS011;40903;51.638;7.528;2024-01-16T09:16:16;15.20;;;4.73;;
55009;SDS011;40903;51.638;7.528;2024-01-16T09:18:42;7.37;;;3.73;;
55009;SDS011;40903;51.638;7.528;2024-01-16T09:21:07;10.40;;;3.47;;
55009;SDS011;40903;51.638;7.528;2024-01-16T09:23:33;10.47;;;3.87;;
55009;SDS011;40903;51.638;7.528;2024-01-16T09:25:58;10.27;;;3.43;;
55009;SDS011;40903;51.638;7.528;2024-01-16T09:28:24;7.30;;;3.40;;
55009;SDS011;40903;51.638;7.528;2024-01-16T09:30:50;8.43;;;3.73;;
55009;SDS011;40903;51.638;7.528;2024-01-16T09:33:15;7.27;;;3.53;;
55009;SDS011;40903;51.638;7.528;2024-01-16T09:35:41;13.77;;;3.77;;
55009;SDS011;40903;51.638;7.528;2024-01-16T09:38:07;8.80;;;3.20;;
55009;SDS011;40903;51.638;7.528;2024-01-16T09:40:33;6.70;;;2.50;;
55009;SDS011;40903;51.638;7.528;2024-01-16T09:43:00;9.47;;;4.00;;
55009;SDS011;40903;51.638;7.528;2024-01-16T09:45:26;6.23;;;2.83;;
55009;SDS011;40903;51.638;7.528;2024-01-16T09:47:54;8.73;;;3.73;;
55009;SDS011;40903;51.638;7.528;2024-01-16T09:50:22;8.90;;;3.73;;
55009;SDS011;40903;51.638;7.528;2024-01-16T09:52:47;6.83;;;3.13;;
55009;SDS011;40903;51.638;7.528;2024-01-16T09:55:14;7.67;;;2.53;;
55009;SDS011;40903;51.638;7.528;2024-01-16T09:57:41;8.10;;;2.90;;
55009;SDS011;40903;51.638;7.528;2024-01-16T10:00:10;7.87;;;2.67;;
55009;SDS011;40903;51.638;7.528;2024-01-16T10:02:39;7.67;;;2.50;;
55009;SDS011;40903;51.638;7.528;2024-01-16T10:05:15;6.87;;;2.80;;
55009;SDS011;40903;51.638;7.528;2024-01-16T10:07:41;5.27;;;2.30;;
55009;SDS011;40903;51.638;7.528;2024-01-16T10:10:10;12.43;;;2.87;;
55009;SDS011;40903;51.638;7.528;2024-01-16T10:12:36;9.17;;;2.77;;
55009;SDS011;40903;51.638;7.528;2024-01-16T10:15:04;5.30;;;2.63;;
55009;SDS011;40903;51.638;7.528;2024-01-16T10:17:40;7.07;;;2.70;;
55009;SDS011;40903;51.638;7.528;2024-01-16T10:20:10;8.50;;;3.17;;
55009;SDS011;40903;51.638;7.528;2024-01-16T10:22:42;7.40;;;3.50;;
55009;SDS011;40903;51.638;7.528;2024-01-16T10:25:18;9.27;;;2.70;;
55009;SDS011;40903;51.638;7.528;2024-01-16T10:27:45;8.13;;;2.93;;
55009;SDS011;40903;51.638;7.528;2024-01-16T10:30:11;4.77;;;2.60;;
55009;SDS011;40903;51.638;7.528;2024-01-16T10:32:38;13.60;;;2.70;;
55009;SDS011;40903;51.638;7.528;2024-01-16T10:35:05;9.93;;;3.03;;
55009;SDS011;40903;51.638;7.528;2024-01-16T10:37:44;8.23;;;2.70;;
55009;SDS011;40903;51.638;7.528;2024-01-16T10:40:14;5.23;;;2.07;;
55009;SDS011;40903;51.638;7.528;2024-01-16T10:42:44;6.73;;;2.37;;
55009;SDS011;40903;51.638;7.528;2024-01-16T10:45:16;6.17;;;2.13;;
55009;SDS011;40903;51.638;7.528;2024-01-16T10:47:43;7.17;;;2.47;;
55009;SDS011;40903;51.638;7.528;2024-01-16T10:50:11;7.27;;;2.20;;
55009;SDS011;40903;51.638;7.528;2024-01-16T10:52:40;6.20;;;1.93;;
55009;SDS011;40903;51.638;7.528;2024-01-16T10:55:19;10.83;;;2.13;;
55009;SDS011;40903;51.638;7.528;2024-01-16T10:57:51;4.53;;;2.20;;
55009;SDS011;40903;51.638;7.528;2024-01-16T11:00:20;11.63;;;3.43;;
55009;SDS011;40903;51.638;7.528;2024-01-16T11:02:49;4.70;;;2.30;;
55009;SDS011;40903;51.638;7.528;2024-01-16T11:05:27;7.80;;;2.50;;
55009;SDS011;40903;51.638;7.528;2024-01-16T11:07:55;8.10;;;2.97;;
55009;SDS011;40903;51.638;7.528;2024-01-16T11:10:24;6.90;;;2.63;;
55009;SDS011;40903;51.638;7.528;2024-01-16T11:12:50;10.30;;;2.40;;
55009;SDS011;40903;51.638;7.528;2024-01-16T11:15:17;8.07;;;2.50;;
55009;SDS011;40903;51.638;7.528;2024-01-16T11:17:46;8.30;;;2.40;;
55009;SDS011;40903;51.638;7.528;2024-01-16T11:20:12;7.70;;;2.50;;
55009;SDS011;40903;51.638;7.528;2024-01-16T11:22:41;9.40;;;3.13;;
55009;SDS011;40903;51.638;7.528;2024-01-16T11:25:11;6.50;;;2.70;;
55009;SDS011;40903;51.638;7.528;2024-01-16T11:27:39;6.27;;;2.77;;
55009;SDS011;40903;51.638;7.528;2024-01-16T11:30:06;6.10;;;2.33;;
55009;SDS011;40903;51.638;7.528;2024-01-16T11:32:36;7.50;;;2.53;;
55009;SDS011;40903;51.638;7.528;2024-01-16T11:35:06;5.27;;;2.17;;
55009;SDS011;40903;51.638;7.528;2024-01-16T11:37:32;5.50;;;2.73;;
55009;SDS011;40903;51.638;7.528;2024-01-16T11:42:46;3.13;;;2.07;;
55009;SDS011;40903;51.638;7.528;2024-01-16T11:50:40;5.67;;;2.93;;
55009;SDS011;40903;51.638;7.528;2024-01-16T11:53:07;4.60;;;1.93;;
55009;SDS011;40903;51.638;7.528;2024-01-16T12:01:25;4.30;;;2.83;;
55009;SDS011;40903;51.638;7.528;2024-01-16T12:04:01;8.33;;;2.70;;
55009;SDS011;40903;51.638;7.528;2024-01-16T12:06:28;6.93;;;2.67;;
55009;SDS011;40903;51.638;7.528;2024-01-16T12:08:53;16.37;;;3.53;;
55009;SDS011;40903;51.638;7.528;2024-01-16T12:11:19;5.90;;;2.50;;
55009;SDS011;40903;51.638;7.528;2024-01-16T12:13:55;5.60;;;2.57;;
55009;SDS011;40903;51.638;7.528;2024-01-16T12:16:26;6.83;;;3.33;;
55009;SDS011;40903;51.638;7.528;2024-01-16T12:19:03;9.57;;;3.40;;
55009;SDS011;40903;51.638;7.528;2024-01-16T12:21:42;7.40;;;3.03;;
55009;SDS011;40903;51.638;7.528;2024-01-16T12:24:11;7.33;;;2.70;;
55009;SDS011;40903;51.638;7.528;2024-01-16T12:26:38;9.30;;;2.57;;
55009;SDS011;40903;51.638;7.528;2024-01-16T12:29:04;6.97;;;2.20;;
55009;SDS011;40903;51.638;7.528;2024-01-16T12:31:31;12.50;;;3.00;;
55009;SDS011;40903;51.638;7.528;2024-01-16T12:34:06;6.27;;;2.97;;
55009;SDS011;40903;51.638;7.528;2024-01-16T12:36:35;5.97;;;2.40;;
55009;SDS011;40903;51.638;7.528;2024-01-16T12:39:02;9.57;;;3.60;;
55009;SDS011;40903;51.638;7.528;2024-01-16T12:41:30;5.33;;;1.80;;
55009;SDS011;40903;51.638;7.528;2024-01-16T12:44:03;5.93;;;2.27;;
55009;SDS011;40903;51.638;7.528;2024-01-16T12:46:29;4.40;;;2.37;;
55009;SDS011;40903;51.638;7.528;2024-01-16T12:49:04;3.73;;;2.20;;
55009;SDS011;40903;51.638;7.528;2024-01-16T12:51:32;5.27;;;2.43;;
55009;SDS011;40903;51.638;7.528;2024-01-16T12:54:13;9.80;;;2.60;;
55009;SDS011;40903;51.638;7.528;2024-01-16T12:56:40;11.47;;;2.60;;
55009;SDS011;40903;51.638;7.528;2024-01-16T12:59:12;6.40;;;2.77;;
55009;SDS011;40903;51.638;7.528;2024-01-16T13:01:42;5.53;;;2.40;;
55009;SDS011;40903;51.638;7.528;2024-01-16T13:04:12;8.57;;;4.00;;
55009;SDS011;40903;51.638;7.528;2024-01-16T13:06:41;8.23;;;2.50;;
55009;SDS011;40903;51.638;7.528;2024-01-16T13:09:11;6.13;;;3.00;;
55009;SDS011;40903;51.638;7.528;2024-01-16T13:11:50;10.67;;;2.50;;
55009;SDS011;40903;51.638;7.528;2024-01-16T13:14:23;7.10;;;2.30;;
55009;SDS011;40903;51.638;7.528;2024-01-16T13:16:50;7.27;;;2.90;;
55009;SDS011;40903;51.638;7.528;2024-01-16T13:19:19;7.33;;;2.43;;
55009;SDS011;40903;51.638;7.528;2024-01-16T13:21:44;7.77;;;4.33;;
55009;SDS011;40903;51.638;7.528;2024-01-16T13:24:10;6.67;;;2.63;;
55009;SDS011;40903;51.638;7.528;2024-01-16T13:26:35;6.70;;;2.57;;
55009;SDS011;40903;51.638;7.528;2024-01-16T13:29:02;10.60;;;2.80;;
55009;SDS011;40903;51.638;7.528;2024-01-16T13:31:29;4.90;;;3.07;;
55009;SDS011;40903;51.638;7.528;2024-01-16T13:33:54;8.10;;;2.70;;
55009;SDS011;40903;51.638;7.528;2024-01-16T13:36:21;7.20;;;3.20;;
55009;SDS011;40903;51.638;7.528;2024-01-16T13:38:48;2.50;;;2.30;;
55009;SDS011;40903;51.638;7.528;2024-01-16T13:41:14;4.57;;;2.87;;
55009;SDS011;40903;51.638;7.528;2024-01-16T13:43:39;5.87;;;3.20;;
55009;SDS011;40903;51.638;7.528;2024-01-16T13:46:06;11.20;;;4.37;;
55009;SDS011;40903;51.638;7.528;2024-01-16T13:48:33;6.00;;;3.87;;
55009;SDS011;40903;51.638;7.528;2024-01-16T13:50:59;7.00;;;3.30;;
55009;SDS011;40903;51.638;7.528;2024-01-16T13:53:25;10.80;;;3.63;;
55009;SDS011;40903;51.638;7.528;2024-01-16T13:55:50;5.67;;;3.17;;
55009;SDS011;40903;51.638;7.528;2024-01-16T13:58:15;7.63;;;4.33;;
55009;SDS011;40903;51.638;7.528;2024-01-16T14:00:41;6.53;;;2.93;;
55009;SDS011;40903;51.638;7.528;2024-01-16T14:03:07;11.80;;;3.63;;
55009;SDS011;40903;51.638;7.528;2024-01-16T14:05:32;9.13;;;5.07;;
55009;SDS011;40903;51.638;7.528;2024-01-16T14:07:58;10.50;;;4.73;;
55009;SDS011;40903;51.638;7.528;2024-01-16T14:10:23;16.13;;;7.50;;
55009;SDS011;40903;51.638;7.528;2024-01-16T14:12:50;8.57;;;3.33;;
55009;SDS011;40903;51.638;7.528;2024-01-16T14:15:17;5.70;;;3.67;;
55009;SDS011;40903;51.638;7.528;2024-01-16T14:17:46;11.30;;;5.20;;
55009;SDS011;40903;51.638;7.528;2024-01-16T14:20:13;7.37;;;3.80;;
55009;SDS011;40903;51.638;7.528;2024-01-16T14:22:40;9.23;;;3.63;;
55009;SDS011;40903;51.638;7.528;2024-01-16T14:25:10;8.67;;;3.63;;
55009;SDS011;40903;51.638;7.528;2024-01-16T14:27:59;11.20;;;5.83;;
55009;SDS011;40903;51.638;7.528;2024-01-16T14:30:34;7.33;;;3.70;;
55009;SDS011;40903;51.638;7.528;2024-01-16T14:33:00;11.50;;;3.20;;
55009;SDS011;40903;51.638;7.528;2024-01-16T14:35:27;5.90;;;3.60;;
55009;SDS011;40903;51.638;7.528;2024-01-16T14:37:52;8.47;;;2.87;;
55009;SDS011;40903;51.638;7.528;2024-01-16T14:40:18;6.17;;;3.17;;
55009;SDS011;40903;51.638;7.528;2024-01-16T14:42:53;5.97;;;3.57;;
55009;SDS011;40903;51.638;7.528;2024-01-16T14:45:21;5.97;;;3.27;;
55009;SDS011;40903;51.638;7.528;2024-01-16T14:47:48;9.73;;;3.73;;
55009;SDS011;40903;51.638;7.528;2024-01-16T14:50:15;6.37;;;3.50;;
55009;SDS011;40903;51.638;7.528;2024-01-16T14:52:47;9.47;;;4.10;;